Westfield, Wisconsin
Current Conditions -  °F | °C
As of 6:56 AM on Friday 19 Dec 2014 (Local Time) from KY50 Reporting Station
Overcast Overcast  
Wind Chill: -9°   Ceiling: 2500
Heat Index: -9°   Visibility: 10mi
Dew Point: -10°   Wind: 0mph
Humidity: 91%   Direction: NA
Pressure: 30.3"   Gusts: NA
Location:  43.88°N, 89.49°W
Report Text: KY50 191256Z AUTO 00000KT 10SM OVC025 M09/M10 A3030 RMK AO2 TSNO T10881100 SLP274
Loading
Personal Weather Stations






























Interactive Weather Map New forecast layout! Learn more

10-Day Weather Forecast

Advertisements
Track Severe Weather on mobile